sensor_id;sensor_type;location;lat;lon;timestamp;temperature;humidity
5358;DHT22;2702;51.014;7.170;2022-08-06T00:01:58;14.20;99.90
5358;DHT22;2702;51.014;7.170;2022-08-06T00:04:24;14.30;99.90
5358;DHT22;2702;51.014;7.170;2022-08-06T00:06:50;14.30;99.90
5358;DHT22;2702;51.014;7.170;2022-08-06T00:09:16;14.30;99.90
5358;DHT22;2702;51.014;7.170;2022-08-06T00:11:42;14.40;99.90
5358;DHT22;2702;51.014;7.170;2022-08-06T00:14:09;14.40;99.90
5358;DHT22;2702;51.014;7.170;2022-08-06T00:16:35;14.40;99.90
5358;DHT22;2702;51.014;7.170;2022-08-06T00:19:01;14.40;99.90
5358;DHT22;2702;51.014;7.170;2022-08-06T00:21:27;14.50;99.90
5358;DHT22;2702;51.014;7.170;2022-08-06T00:23:53;14.50;99.90
5358;DHT22;2702;51.014;7.170;2022-08-06T00:26:18;14.60;99.90
5358;DHT22;2702;51.014;7.170;2022-08-06T00:28:44;14.60;99.90
5358;DHT22;2702;51.014;7.170;2022-08-06T00:31:10;14.60;99.90
5358;DHT22;2702;51.014;7.170;2022-08-06T00:33:36;14.70;99.90
5358;DHT22;2702;51.014;7.170;2022-08-06T00:36:03;14.70;99.90
5358;DHT22;2702;51.014;7.170;2022-08-06T00:38:29;14.60;99.90
5358;DHT22;2702;51.014;7.170;2022-08-06T00:40:55;14.70;99.90
5358;DHT22;2702;51.014;7.170;2022-08-06T00:43:21;14.70;99.90
5358;DHT22;2702;51.014;7.170;2022-08-06T00:45:47;14.70;99.90
5358;DHT22;2702;51.014;7.170;2022-08-06T00:48:13;14.70;99.90
5358;DHT22;2702;51.014;7.170;2022-08-06T00:50:39;14.60;99.90
5358;DHT22;2702;51.014;7.170;2022-08-06T00:53:05;14.60;99.90
5358;DHT22;2702;51.014;7.170;2022-08-06T00:55:32;14.60;99.90
5358;DHT22;2702;51.014;7.170;2022-08-06T00:57:58;14.50;99.90
5358;DHT22;2702;51.014;7.170;2022-08-06T01:00:24;14.60;99.90
5358;DHT22;2702;51.014;7.170;2022-08-06T01:02:50;14.50;99.90
5358;DHT22;2702;51.014;7.170;2022-08-06T01:05:16;14.30;99.90
5358;DHT22;2702;51.014;7.170;2022-08-06T01:07:42;14.30;99.90
5358;DHT22;2702;51.014;7.170;2022-08-06T01:10:08;14.30;99.90
5358;DHT22;2702;51.014;7.170;2022-08-06T01:12:34;14.20;99.90
5358;DHT22;2702;51.014;7.170;2022-08-06T01:15:00;14.10;99.90
5358;DHT22;2702;51.014;7.170;2022-08-06T01:29:29;14.10;99.90
5358;DHT22;2702;51.014;7.170;2022-08-06T01:32:09;14.00;99.90
5358;DHT22;2702;51.014;7.170;2022-08-06T01:34:51;14.00;99.90
5358;DHT22;2702;51.014;7.170;2022-08-06T01:37:26;14.00;99.90
5358;DHT22;2702;51.014;7.170;2022-08-06T01:40:03;14.00;99.90
5358;DHT22;2702;51.014;7.170;2022-08-06T01:42:31;14.00;99.90
5358;DHT22;2702;51.014;7.170;2022-08-06T01:45:00;14.00;99.90
5358;DHT22;2702;51.014;7.170;2022-08-06T01:47:30;14.00;99.90
5358;DHT22;2702;51.014;7.170;2022-08-06T01:50:03;13.90;99.90
5358;DHT22;2702;51.014;7.170;2022-08-06T01:52:41;13.80;99.90
5358;DHT22;2702;51.014;7.170;2022-08-06T01:55:13;13.80;99.90
5358;DHT22;2702;51.014;7.170;2022-08-06T01:57:52;13.70;99.90
5358;DHT22;2702;51.014;7.170;2022-08-06T02:00:19;13.80;99.90
5358;DHT22;2702;51.014;7.170;2022-08-06T02:02:46;13.80;99.90
5358;DHT22;2702;51.014;7.170;2022-08-06T02:05:15;13.70;99.90
5358;DHT22;2702;51.014;7.170;2022-08-06T02:07:45;13.70;99.90
5358;DHT22;2702;51.014;7.170;2022-08-06T02:10:13;13.70;99.90
5358;DHT22;2702;51.014;7.170;2022-08-06T02:12:40;13.70;99.90
5358;DHT22;2702;51.014;7.170;2022-08-06T02:15:20;13.70;99.90
5358;DHT22;2702;51.014;7.170;2022-08-06T02:17:54;13.70;99.90
5358;DHT22;2702;51.014;7.170;2022-08-06T02:20:43;13.60;99.90
5358;DHT22;2702;51.014;7.170;2022-08-06T02:23:15;13.60;99.90
5358;DHT22;2702;51.014;7.170;2022-08-06T02:25:43;13.60;99.90
5358;DHT22;2702;51.014;7.170;2022-08-06T02:28:13;13.60;99.90
5358;DHT22;2702;51.014;7.170;2022-08-06T02:30:45;13.60;99.90
5358;DHT22;2702;51.014;7.170;2022-08-06T02:33:12;13.70;99.90
5358;DHT22;2702;51.014;7.170;2022-08-06T02:43:59;13.60;99.90
5358;DHT22;2702;51.014;7.170;2022-08-06T02:46:38;13.60;99.90
5358;DHT22;2702;51.014;7.170;2022-08-06T02:49:26;13.50;99.90
5358;DHT22;2702;51.014;7.170;2022-08-06T02:52:00;13.50;99.90
5358;DHT22;2702;51.014;7.170;2022-08-06T02:55:02;13.50;99.90
5358;DHT22;2702;51.014;7.170;2022-08-06T02:57:38;13.50;99.90
5358;DHT22;2702;51.014;7.170;2022-08-06T03:00:07;13.40;99.90
5358;DHT22;2702;51.014;7.170;2022-08-06T03:02:36;13.40;99.90
5358;DHT22;2702;51.014;7.170;2022-08-06T03:05:06;13.40;99.90
5358;DHT22;2702;51.014;7.170;2022-08-06T03:07:34;13.40;99.90
5358;DHT22;2702;51.014;7.170;2022-08-06T03:10:02;13.40;99.90
5358;DHT22;2702;51.014;7.170;2022-08-06T03:12:29;13.40;99.90
5358;DHT22;2702;51.014;7.170;2022-08-06T03:15:04;13.40;99.90
5358;DHT22;2702;51.014;7.170;2022-08-06T03:17:32;13.30;99.90
5358;DHT22;2702;51.014;7.170;2022-08-06T03:20:00;13.30;99.90
5358;DHT22;2702;51.014;7.170;2022-08-06T03:22:28;13.30;99.90
5358;DHT22;2702;51.014;7.170;2022-08-06T03:24:56;13.20;99.90
5358;DHT22;2702;51.014;7.170;2022-08-06T03:27:23;13.20;99.90
5358;DHT22;2702;51.014;7.170;2022-08-06T03:29:51;13.10;99.90
5358;DHT22;2702;51.014;7.170;2022-08-06T03:32:18;13.10;99.90
5358;DHT22;2702;51.014;7.170;2022-08-06T03:34:44;13.00;99.90
5358;DHT22;2702;51.014;7.170;2022-08-06T03:37:12;12.90;99.90
5358;DHT22;2702;51.014;7.170;2022-08-06T03:39:41;12.90;99.90
5358;DHT22;2702;51.014;7.170;2022-08-06T03:42:07;12.80;99.90
5358;DHT22;2702;51.014;7.170;2022-08-06T03:44:33;12.80;99.90
5358;DHT22;2702;51.014;7.170;2022-08-06T03:47:09;12.80;99.90
5358;DHT22;2702;51.014;7.170;2022-08-06T03:49:42;12.70;99.90
5358;DHT22;2702;51.014;7.170;2022-08-06T03:52:15;12.60;99.90
5358;DHT22;2702;51.014;7.170;2022-08-06T03:54:46;12.50;99.90
5358;DHT22;2702;51.014;7.170;2022-08-06T03:57:19;12.50;99.90
5358;DHT22;2702;51.014;7.170;2022-08-06T03:59:47;12.50;99.90
5358;DHT22;2702;51.014;7.170;2022-08-06T04:02:15;12.50;99.90
5358;DHT22;2702;51.014;7.170;2022-08-06T04:04:43;12.50;99.90
5358;DHT22;2702;51.014;7.170;2022-08-06T04:07:14;12.50;99.90
5358;DHT22;2702;51.014;7.170;2022-08-06T04:09:42;12.50;99.90
5358;DHT22;2702;51.014;7.170;2022-08-06T04:12:09;12.50;99.90
5358;DHT22;2702;51.014;7.170;2022-08-06T04:14:36;12.50;99.90
5358;DHT22;2702;51.014;7.170;2022-08-06T04:17:03;12.50;99.90
5358;DHT22;2702;51.014;7.170;2022-08-06T04:19:30;12.50;99.90
5358;DHT22;2702;51.014;7.170;2022-08-06T04:21:56;12.50;99.90
5358;DHT22;2702;51.014;7.170;2022-08-06T04:24:22;12.50;99.90
5358;DHT22;2702;51.014;7.170;2022-08-06T04:26:52;12.40;99.90
5358;DHT22;2702;51.014;7.170;2022-08-06T04:29:20;12.50;99.90
5358;DHT22;2702;51.014;7.170;2022-08-06T04:31:49;12.50;99.90
5358;DHT22;2702;51.014;7.170;2022-08-06T04:34:23;12.40;99.90
5358;DHT22;2702;51.014;7.170;2022-08-06T04:36:50;12.50;99.90
5358;DHT22;2702;51.014;7.170;2022-08-06T04:39:17;12.50;99.90
5358;DHT22;2702;51.014;7.170;2022-08-06T04:41:44;12.50;99.90
5358;DHT22;2702;51.014;7.170;2022-08-06T04:44:11;12.50;99.90
5358;DHT22;2702;51.014;7.170;2022-08-06T04:46:37;12.50;99.90
5358;DHT22;2702;51.014;7.170;2022-08-06T04:49:04;12.50;99.90
5358;DHT22;2702;51.014;7.170;2022-08-06T04:51:30;12.50;99.90
5358;DHT22;2702;51.014;7.170;2022-08-06T04:53:56;12.50;99.90
5358;DHT22;2702;51.014;7.170;2022-08-06T04:56:22;12.50;99.90
5358;DHT22;2702;51.014;7.170;2022-08-06T04:58:48;12.50;99.90
5358;DHT22;2702;51.014;7.170;2022-08-06T05:01:14;12.50;99.90
5358;DHT22;2702;51.014;7.170;2022-08-06T05:03:40;12.50;99.90
5358;DHT22;2702;51.014;7.170;2022-08-06T05:08:41;12.50;99.90
5358;DHT22;2702;51.014;7.170;2022-08-06T05:11:33;12.60;99.90
5358;DHT22;2702;51.014;7.170;2022-08-06T05:14:04;12.70;99.90
5358;DHT22;2702;51.014;7.170;2022-08-06T05:16:36;12.60;99.90
5358;DHT22;2702;51.014;7.170;2022-08-06T05:19:08;12.60;99.90
5358;DHT22;2702;51.014;7.170;2022-08-06T05:21:37;12.70;99.90
5358;DHT22;2702;51.014;7.170;2022-08-06T05:24:04;12.70;99.90
5358;DHT22;2702;51.014;7.170;2022-08-06T05:26:31;12.70;99.90
5358;DHT22;2702;51.014;7.170;2022-08-06T05:28:58;12.70;99.90
5358;DHT22;2702;51.014;7.170;2022-08-06T05:31:34;12.80;99.90
5358;DHT22;2702;51.014;7.170;2022-08-06T05:34:03;12.90;99.90
5358;DHT22;2702;51.014;7.170;2022-08-06T05:36:29;12.90;99.90
5358;DHT22;2702;51.014;7.170;2022-08-06T05:38:55;13.00;99.90
5358;DHT22;2702;51.014;7.170;2022-08-06T05:41:22;13.00;99.90
5358;DHT22;2702;51.014;7.170;2022-08-06T05:43:48;13.10;99.90
5358;DHT22;2702;51.014;7.170;2022-08-06T05:46:16;13.20;99.90
5358;DHT22;2702;51.014;7.170;2022-08-06T05:48:52;13.30;99.90
5358;DHT22;2702;51.014;7.170;2022-08-06T05:54:15;13.30;99.90
5358;DHT22;2702;51.014;7.170;2022-08-06T05:56:44;13.40;99.90
5358;DHT22;2702;51.014;7.170;2022-08-06T05:59:28;13.50;99.90
5358;DHT22;2702;51.014;7.170;2022-08-06T06:01:55;13.50;99.90
5358;DHT22;2702;51.014;7.170;2022-08-06T06:04:23;13.50;99.90
5358;DHT22;2702;51.014;7.170;2022-08-06T06:06:50;13.60;99.90
5358;DHT22;2702;51.014;7.170;2022-08-06T06:09:18;13.70;99.90
5358;DHT22;2702;51.014;7.170;2022-08-06T06:11:45;13.80;99.90
5358;DHT22;2702;51.014;7.170;2022-08-06T06:14:47;13.80;99.90
5358;DHT22;2702;51.014;7.170;2022-08-06T06:25:33;14.20;99.90
5358;DHT22;2702;51.014;7.170;2022-08-06T06:33:55;14.40;99.90
5358;DHT22;2702;51.014;7.170;2022-08-06T06:46:46;15.20;99.90
5358;DHT22;2702;51.014;7.170;2022-08-06T06:49:22;15.30;99.90
5358;DHT22;2702;51.014;7.170;2022-08-06T06:51:53;15.40;99.90
5358;DHT22;2702;51.014;7.170;2022-08-06T06:54:38;15.60;99.90
5358;DHT22;2702;51.014;7.170;2022-08-06T06:57:09;15.70;99.90
5358;DHT22;2702;51.014;7.170;2022-08-06T06:59:39;15.80;99.90
5358;DHT22;2702;51.014;7.170;2022-08-06T07:02:14;16.00;99.90
5358;DHT22;2702;51.014;7.170;2022-08-06T07:04:42;16.10;99.90
5358;DHT22;2702;51.014;7.170;2022-08-06T07:07:11;16.20;99.90
5358;DHT22;2702;51.014;7.170;2022-08-06T07:09:38;16.30;99.90
5358;DHT22;2702;51.014;7.170;2022-08-06T07:12:05;16.50;99.90
5358;DHT22;2702;51.014;7.170;2022-08-06T07:14:34;16.60;99.90
5358;DHT22;2702;51.014;7.170;2022-08-06T07:17:02;16.70;99.90
5358;DHT22;2702;51.014;7.170;2022-08-06T07:19:28;16.80;99.90
5358;DHT22;2702;51.014;7.170;2022-08-06T07:21:55;16.90;99.90
5358;DHT22;2702;51.014;7.170;2022-08-06T07:24:23;17.00;99.90
5358;DHT22;2702;51.014;7.170;2022-08-06T07:26:50;17.10;99.90
5358;DHT22;2702;51.014;7.170;2022-08-06T07:29:19;17.10;99.90
5358;DHT22;2702;51.014;7.170;2022-08-06T07:31:46;17.20;99.90
5358;DHT22;2702;51.014;7.170;2022-08-06T07:34:14;17.10;99.90
5358;DHT22;2702;51.014;7.170;2022-08-06T07:36:48;17.10;99.90
5358;DHT22;2702;51.014;7.170;2022-08-06T07:39:23;17.20;99.90
5358;DHT22;2702;51.014;7.170;2022-08-06T07:41:52;17.20;99.90
5358;DHT22;2702;51.014;7.170;2022-08-06T07:44:21;17.20;99.90
5358;DHT22;2702;51.014;7.170;2022-08-06T07:46:50;17.30;99.90
5358;DHT22;2702;51.014;7.170;2022-08-06T07:49:21;17.30;99.90
5358;DHT22;2702;51.014;7.170;2022-08-06T07:51:48;17.40;99.90
5358;DHT22;2702;51.014;7.170;2022-08-06T07:54:18;17.40;99.90
5358;DHT22;2702;51.014;7.170;2022-08-06T07:56:44;17.30;99.90
5358;DHT22;2702;51.014;7.170;2022-08-06T07:59:10;17.40;99.90
5358;DHT22;2702;51.014;7.170;2022-08-06T08:01:37;17.40;99.90
5358;DHT22;2702;51.014;7.170;2022-08-06T08:04:08;17.40;99.90
5358;DHT22;2702;51.014;7.170;2022-08-06T08:06:54;17.40;99.90
5358;DHT22;2702;51.014;7.170;2022-08-06T08:09:23;17.10;99.90
5358;DHT22;2702;51.014;7.170;2022-08-06T08:11:50;17.00;99.90
5358;DHT22;2702;51.014;7.170;2022-08-06T08:14:19;17.10;99.90
5358;DHT22;2702;51.014;7.170;2022-08-06T08:16:46;17.30;99.90
5358;DHT22;2702;51.014;7.170;2022-08-06T08:19:29;17.40;99.90
5358;DHT22;2702;51.014;7.170;2022-08-06T08:22:18;17.50;99.90
5358;DHT22;2702;51.014;7.170;2022-08-06T08:24:46;17.80;99.90
5358;DHT22;2702;51.014;7.170;2022-08-06T08:27:13;18.00;99.90
5358;DHT22;2702;51.014;7.170;2022-08-06T08:29:41;18.10;99.90
5358;DHT22;2702;51.014;7.170;2022-08-06T08:32:09;18.10;99.90
5358;DHT22;2702;51.014;7.170;2022-08-06T08:34:35;18.20;99.90
5358;DHT22;2702;51.014;7.170;2022-08-06T08:37:02;18.40;99.90
5358;DHT22;2702;51.014;7.170;2022-08-06T08:39:28;18.50;99.90
5358;DHT22;2702;51.014;7.170;2022-08-06T08:42:09;18.60;99.90
5358;DHT22;2702;51.014;7.170;2022-08-06T08:44:35;18.80;99.90
5358;DHT22;2702;51.014;7.170;2022-08-06T08:47:02;18.90;99.90
5358;DHT22;2702;51.014;7.170;2022-08-06T08:52:01;19.20;99.90
5358;DHT22;2702;51.014;7.170;2022-08-06T08:54:31;19.40;99.90
5358;DHT22;2702;51.014;7.170;2022-08-06T08:56:59;19.50;99.90
5358;DHT22;2702;51.014;7.170;2022-08-06T08:59:25;19.50;99.90
5358;DHT22;2702;51.014;7.170;2022-08-06T09:01:52;19.40;99.90
5358;DHT22;2702;51.014;7.170;2022-08-06T09:04:18;19.50;99.90
5358;DHT22;2702;51.014;7.170;2022-08-06T09:06:45;19.50;99.90
5358;DHT22;2702;51.014;7.170;2022-08-06T09:09:11;19.60;99.90
5358;DHT22;2702;51.014;7.170;2022-08-06T09:11:37;19.80;99.90
5358;DHT22;2702;51.014;7.170;2022-08-06T09:14:05;20.00;99.90
5358;DHT22;2702;51.014;7.170;2022-08-06T09:16:32;20.20;99.90
5358;DHT22;2702;51.014;7.170;2022-08-06T09:19:00;20.40;99.90
5358;DHT22;2702;51.014;7.170;2022-08-06T09:21:27;20.30;99.90
5358;DHT22;2702;51.014;7.170;2022-08-06T09:23:53;20.30;99.90
5358;DHT22;2702;51.014;7.170;2022-08-06T09:26:19;20.00;99.90
5358;DHT22;2702;51.014;7.170;2022-08-06T09:28:45;19.80;99.90
5358;DHT22;2702;51.014;7.170;2022-08-06T09:31:19;19.90;99.90
5358;DHT22;2702;51.014;7.170;2022-08-06T09:34:05;19.80;99.90
5358;DHT22;2702;51.014;7.170;2022-08-06T09:36:42;19.80;99.90
5358;DHT22;2702;51.014;7.170;2022-08-06T09:39:09;19.50;99.90
5358;DHT22;2702;51.014;7.170;2022-08-06T09:41:46;19.40;99.90
5358;DHT22;2702;51.014;7.170;2022-08-06T09:44:15;19.30;99.90
5358;DHT22;2702;51.014;7.170;2022-08-06T09:46:45;18.80;99.90
5358;DHT22;2702;51.014;7.170;2022-08-06T09:49:14;19.10;99.90
5358;DHT22;2702;51.014;7.170;2022-08-06T09:51:41;19.30;99.90
5358;DHT22;2702;51.014;7.170;2022-08-06T09:54:09;19.60;99.90
5358;DHT22;2702;51.014;7.170;2022-08-06T09:56:36;19.60;99.90
5358;DHT22;2702;51.014;7.170;2022-08-06T09:59:05;19.70;99.90
5358;DHT22;2702;51.014;7.170;2022-08-06T10:01:43;19.80;99.90
5358;DHT22;2702;51.014;7.170;2022-08-06T10:04:26;19.80;99.90
5358;DHT22;2702;51.014;7.170;2022-08-06T10:06:57;20.10;99.90
5358;DHT22;2702;51.014;7.170;2022-08-06T10:09:24;20.30;99.90
5358;DHT22;2702;51.014;7.170;2022-08-06T10:11:51;20.40;99.90
5358;DHT22;2702;51.014;7.170;2022-08-06T10:14:35;20.10;99.90
5358;DHT22;2702;51.014;7.170;2022-08-06T10:17:17;19.90;99.90
5358;DHT22;2702;51.014;7.170;2022-08-06T10:22:30;19.90;99.90
5358;DHT22;2702;51.014;7.170;2022-08-06T10:25:01;20.10;99.90
5358;DHT22;2702;51.014;7.170;2022-08-06T10:27:33;20.50;99.90
5358;DHT22;2702;51.014;7.170;2022-08-06T10:30:06;20.70;99.90
5358;DHT22;2702;51.014;7.170;2022-08-06T10:32:47;20.80;99.90
5358;DHT22;2702;51.014;7.170;2022-08-06T10:35:20;21.10;99.90
5358;DHT22;2702;51.014;7.170;2022-08-06T10:37:51;21.40;99.90
5358;DHT22;2702;51.014;7.170;2022-08-06T10:40:19;21.60;99.90
5358;DHT22;2702;51.014;7.170;2022-08-06T10:42:46;21.50;99.90
5358;DHT22;2702;51.014;7.170;2022-08-06T10:45:12;21.60;99.90
5358;DHT22;2702;51.014;7.170;2022-08-06T10:47:40;22.00;99.90
5358;DHT22;2702;51.014;7.170;2022-08-06T10:50:07;22.40;99.90
5358;DHT22;2702;51.014;7.170;2022-08-06T10:52:35;22.50;99.90
5358;DHT22;2702;51.014;7.170;2022-08-06T10:55:04;22.40;99.90
5358;DHT22;2702;51.014;7.170;2022-08-06T10:57:31;22.20;99.90
5358;DHT22;2702;51.014;7.170;2022-08-06T10:59:59;21.70;99.90
5358;DHT22;2702;51.014;7.170;2022-08-06T11:05:15;21.00;99.90
5358;DHT22;2702;51.014;7.170;2022-08-06T11:07:46;20.50;99.90
5358;DHT22;2702;51.014;7.170;2022-08-06T11:16:23;20.60;99.90
5358;DHT22;2702;51.014;7.170;2022-08-06T11:19:07;21.00;99.90
5358;DHT22;2702;51.014;7.170;2022-08-06T11:21:41;21.20;99.90
5358;DHT22;2702;51.014;7.170;2022-08-06T11:24:07;21.30;99.90
5358;DHT22;2702;51.014;7.170;2022-08-06T11:26:39;21.30;99.90
5358;DHT22;2702;51.014;7.170;2022-08-06T11:29:06;21.40;99.90
5358;DHT22;2702;51.014;7.170;2022-08-06T11:34:10;21.30;99.90
5358;DHT22;2702;51.014;7.170;2022-08-06T11:36:56;20.90;99.90
5358;DHT22;2702;51.014;7.170;2022-08-06T11:39:25;20.80;99.90
5358;DHT22;2702;51.014;7.170;2022-08-06T11:42:00;21.00;99.90
5358;DHT22;2702;51.014;7.170;2022-08-06T11:44:32;21.50;99.90
5358;DHT22;2702;51.014;7.170;2022-08-06T11:47:09;21.60;99.90
5358;DHT22;2702;51.014;7.170;2022-08-06T11:52:04;21.40;99.90
5358;DHT22;2702;51.014;7.170;2022-08-06T11:54:33;21.40;99.90
5358;DHT22;2702;51.014;7.170;2022-08-06T11:59:45;21.30;99.90
5358;DHT22;2702;51.014;7.170;2022-08-06T12:08:22;22.30;99.90
5358;DHT22;2702;51.014;7.170;2022-08-06T12:13:48;22.40;99.90
5358;DHT22;2702;51.014;7.170;2022-08-06T12:16:34;21.80;99.90
5358;DHT22;2702;51.014;7.170;2022-08-06T12:19:03;21.20;99.90
5358;DHT22;2702;51.014;7.170;2022-08-06T12:21:30;20.60;99.90
5358;DHT22;2702;51.014;7.170;2022-08-06T12:23:56;20.50;99.90
5358;DHT22;2702;51.014;7.170;2022-08-06T12:26:22;20.50;99.90
5358;DHT22;2702;51.014;7.170;2022-08-06T12:28:49;20.20;99.90
5358;DHT22;2702;51.014;7.170;2022-08-06T12:31:32;20.30;99.90
5358;DHT22;2702;51.014;7.170;2022-08-06T12:33:58;20.50;99.90
5358;DHT22;2702;51.014;7.170;2022-08-06T12:36:29;20.90;99.90
5358;DHT22;2702;51.014;7.170;2022-08-06T12:38:57;21.30;99.90
5358;DHT22;2702;51.014;7.170;2022-08-06T12:41:22;21.20;99.90
5358;DHT22;2702;51.014;7.170;2022-08-06T12:43:57;21.60;99.90
5358;DHT22;2702;51.014;7.170;2022-08-06T12:46:23;21.60;99.90
5358;DHT22;2702;51.014;7.170;2022-08-06T12:48:50;21.30;99.90
5358;DHT22;2702;51.014;7.170;2022-08-06T12:51:17;20.80;99.90
5358;DHT22;2702;51.014;7.170;2022-08-06T12:53:47;20.60;99.90
5358;DHT22;2702;51.014;7.170;2022-08-06T12:56:17;20.70;99.90
5358;DHT22;2702;51.014;7.170;2022-08-06T12:58:44;20.70;99.90
5358;DHT22;2702;51.014;7.170;2022-08-06T13:01:13;20.80;99.90
5358;DHT22;2702;51.014;7.170;2022-08-06T13:03:43;20.80;99.90
5358;DHT22;2702;51.014;7.170;2022-08-06T13:06:11;21.10;99.90
5358;DHT22;2702;51.014;7.170;2022-08-06T13:08:38;21.50;99.90
5358;DHT22;2702;51.014;7.170;2022-08-06T13:11:04;22.00;99.90
5358;DHT22;2702;51.014;7.170;2022-08-06T13:13:44;22.40;99.90
5358;DHT22;2702;51.014;7.170;2022-08-06T13:16:13;22.70;99.90
5358;DHT22;2702;51.014;7.170;2022-08-06T13:18:40;22.50;99.90
5358;DHT22;2702;51.014;7.170;2022-08-06T13:21:21;22.10;99.90
5358;DHT22;2702;51.014;7.170;2022-08-06T13:23:51;21.80;99.90
5358;DHT22;2702;51.014;7.170;2022-08-06T13:26:51;21.90;99.90
5358;DHT22;2702;51.014;7.170;2022-08-06T13:29:24;22.30;99.90
5358;DHT22;2702;51.014;7.170;2022-08-06T13:32:06;22.60;99.90
5358;DHT22;2702;51.014;7.170;2022-08-06T13:34:51;22.70;99.90
5358;DHT22;2702;51.014;7.170;2022-08-06T13:40:12;22.90;99.90
5358;DHT22;2702;51.014;7.170;2022-08-06T13:42:51;22.70;99.90
5358;DHT22;2702;51.014;7.170;2022-08-06T13:45:25;22.40;99.90
5358;DHT22;2702;51.014;7.170;2022-08-06T13:48:03;22.20;99.90
5358;DHT22;2702;51.014;7.170;2022-08-06T13:50:33;22.40;99.90
5358;DHT22;2702;51.014;7.170;2022-08-06T13:52:59;22.40;99.90
5358;DHT22;2702;51.014;7.170;2022-08-06T13:55:26;22.50;99.90
5358;DHT22;2702;51.014;7.170;2022-08-06T13:57:52;22.80;99.90
5358;DHT22;2702;51.014;7.170;2022-08-06T14:00:18;23.00;99.90
5358;DHT22;2702;51.014;7.170;2022-08-06T14:02:44;23.10;99.90
5358;DHT22;2702;51.014;7.170;2022-08-06T14:05:10;23.20;99.90
5358;DHT22;2702;51.014;7.170;2022-08-06T14:07:36;23.40;99.90
5358;DHT22;2702;51.014;7.170;2022-08-06T14:10:02;23.30;99.90
5358;DHT22;2702;51.014;7.170;2022-08-06T14:12:28;23.20;99.90
5358;DHT22;2702;51.014;7.170;2022-08-06T14:14:54;23.00;99.90
5358;DHT22;2702;51.014;7.170;2022-08-06T14:17:20;23.00;99.90
5358;DHT22;2702;51.014;7.170;2022-08-06T14:19:46;23.10;99.90
5358;DHT22;2702;51.014;7.170;2022-08-06T14:22:12;23.20;99.90
5358;DHT22;2702;51.014;7.170;2022-08-06T14:24:38;23.10;99.90
5358;DHT22;2702;51.014;7.170;2022-08-06T14:27:04;23.00;99.90
5358;DHT22;2702;51.014;7.170;2022-08-06T14:29:30;23.10;99.90
5358;DHT22;2702;51.014;7.170;2022-08-06T14:31:56;23.50;99.90
5358;DHT22;2702;51.014;7.170;2022-08-06T14:34:22;23.80;99.90
5358;DHT22;2702;51.014;7.170;2022-08-06T14:36:48;23.60;99.90
5358;DHT22;2702;51.014;7.170;2022-08-06T14:39:14;23.60;99.90
5358;DHT22;2702;51.014;7.170;2022-08-06T14:41:41;23.50;99.90
5358;DHT22;2702;51.014;7.170;2022-08-06T14:44:25;23.30;99.90
5358;DHT22;2702;51.014;7.170;2022-08-06T14:47:10;23.30;99.90
5358;DHT22;2702;51.014;7.170;2022-08-06T14:49:36;23.00;99.90
5358;DHT22;2702;51.014;7.170;2022-08-06T14:52:02;23.30;99.90
5358;DHT22;2702;51.014;7.170;2022-08-06T14:54:29;23.60;99.90
5358;DHT22;2702;51.014;7.170;2022-08-06T14:56:55;23.60;99.90
5358;DHT22;2702;51.014;7.170;2022-08-06T14:59:22;23.50;99.90
5358;DHT22;2702;51.014;7.170;2022-08-06T15:01:51;23.40;99.90
5358;DHT22;2702;51.014;7.170;2022-08-06T15:04:18;23.50;99.90
5358;DHT22;2702;51.014;7.170;2022-08-06T15:06:44;23.40;99.90
5358;DHT22;2702;51.014;7.170;2022-08-06T15:09:10;23.60;99.90
5358;DHT22;2702;51.014;7.170;2022-08-06T15:11:37;24.10;99.90
5358;DHT22;2702;51.014;7.170;2022-08-06T15:14:03;24.40;99.90
5358;DHT22;2702;51.014;7.170;2022-08-06T15:16:29;24.30;99.90
5358;DHT22;2702;51.014;7.170;2022-08-06T15:18:55;24.30;99.90
5358;DHT22;2702;51.014;7.170;2022-08-06T15:21:21;24.40;99.90
5358;DHT22;2702;51.014;7.170;2022-08-06T15:23:48;24.60;99.90
5358;DHT22;2702;51.014;7.170;2022-08-06T15:26:14;24.50;99.90
5358;DHT22;2702;51.014;7.170;2022-08-06T15:28:40;24.30;99.90
5358;DHT22;2702;51.014;7.170;2022-08-06T15:31:06;24.00;99.90
5358;DHT22;2702;51.014;7.170;2022-08-06T15:33:33;24.10;99.90
5358;DHT22;2702;51.014;7.170;2022-08-06T15:35:59;23.90;99.90
5358;DHT22;2702;51.014;7.170;2022-08-06T15:38:28;23.70;99.90
5358;DHT22;2702;51.014;7.170;2022-08-06T15:40:55;23.60;99.90
5358;DHT22;2702;51.014;7.170;2022-08-06T15:43:24;23.50;99.90
5358;DHT22;2702;51.014;7.170;2022-08-06T15:45:51;23.30;99.90
5358;DHT22;2702;51.014;7.170;2022-08-06T15:48:18;23.40;99.90
5358;DHT22;2702;51.014;7.170;2022-08-06T15:50:46;23.50;99.90
5358;DHT22;2702;51.014;7.170;2022-08-06T15:53:13;23.50;99.90
5358;DHT22;2702;51.014;7.170;2022-08-06T15:55:39;23.50;99.90
5358;DHT22;2702;51.014;7.170;2022-08-06T15:58:05;23.70;99.90
5358;DHT22;2702;51.014;7.170;2022-08-06T16:00:36;24.10;99.90
5358;DHT22;2702;51.014;7.170;2022-08-06T16:03:07;24.50;99.90
5358;DHT22;2702;51.014;7.170;2022-08-06T16:05:35;24.90;99.90
5358;DHT22;2702;51.014;7.170;2022-08-06T16:08:02;25.00;99.90
5358;DHT22;2702;51.014;7.170;2022-08-06T16:10:28;24.60;99.90
5358;DHT22;2702;51.014;7.170;2022-08-06T16:12:54;24.40;99.90
5358;DHT22;2702;51.014;7.170;2022-08-06T16:15:20;24.50;99.90
5358;DHT22;2702;51.014;7.170;2022-08-06T16:17:46;24.60;99.90
5358;DHT22;2702;51.014;7.170;2022-08-06T16:20:17;24.50;99.90
5358;DHT22;2702;51.014;7.170;2022-08-06T16:22:44;24.30;99.90
5358;DHT22;2702;51.014;7.170;2022-08-06T16:25:10;24.20;99.90
5358;DHT22;2702;51.014;7.170;2022-08-06T16:27:37;24.00;99.90
5358;DHT22;2702;51.014;7.170;2022-08-06T16:30:03;24.00;99.90
5358;DHT22;2702;51.014;7.170;2022-08-06T16:32:29;23.70;99.90
5358;DHT22;2702;51.014;7.170;2022-08-06T16:34:55;23.80;99.90
5358;DHT22;2702;51.014;7.170;2022-08-06T16:37:25;23.90;99.90
5358;DHT22;2702;51.014;7.170;2022-08-06T16:39:54;23.80;99.90
5358;DHT22;2702;51.014;7.170;2022-08-06T16:42:20;23.80;99.90
5358;DHT22;2702;51.014;7.170;2022-08-06T16:44:46;23.60;99.90
5358;DHT22;2702;51.014;7.170;2022-08-06T16:47:12;23.80;99.90
5358;DHT22;2702;51.014;7.170;2022-08-06T16:49:38;23.80;99.90
5358;DHT22;2702;51.014;7.170;2022-08-06T16:52:05;23.80;99.90
5358;DHT22;2702;51.014;7.170;2022-08-06T16:54:31;23.50;99.90
5358;DHT22;2702;51.014;7.170;2022-08-06T16:56:57;23.40;99.90
5358;DHT22;2702;51.014;7.170;2022-08-06T16:59:23;23.30;99.90
5358;DHT22;2702;51.014;7.170;2022-08-06T17:01:49;23.30;99.90
5358;DHT22;2702;51.014;7.170;2022-08-06T17:04:34;23.00;99.90
5358;DHT22;2702;51.014;7.170;2022-08-06T17:07:00;23.00;99.90
5358;DHT22;2702;51.014;7.170;2022-08-06T17:09:27;23.30;99.90
5358;DHT22;2702;51.014;7.170;2022-08-06T17:11:54;23.50;99.90
5358;DHT22;2702;51.014;7.170;2022-08-06T17:14:20;23.70;99.90
5358;DHT22;2702;51.014;7.170;2022-08-06T17:16:48;23.70;99.90
5358;DHT22;2702;51.014;7.170;2022-08-06T17:19:15;23.60;99.90
5358;DHT22;2702;51.014;7.170;2022-08-06T17:21:41;23.30;99.90
5358;DHT22;2702;51.014;7.170;2022-08-06T17:24:07;23.00;99.90
5358;DHT22;2702;51.014;7.170;2022-08-06T17:26:33;22.90;99.90
5358;DHT22;2702;51.014;7.170;2022-08-06T17:28:59;22.90;99.90
5358;DHT22;2702;51.014;7.170;2022-08-06T17:31:25;23.00;99.90
5358;DHT22;2702;51.014;7.170;2022-08-06T17:33:50;23.30;99.90
5358;DHT22;2702;51.014;7.170;2022-08-06T17:36:16;23.50;99.90
5358;DHT22;2702;51.014;7.170;2022-08-06T17:38:42;23.60;99.90
5358;DHT22;2702;51.014;7.170;2022-08-06T17:41:08;23.50;99.90